Terminal Aerodrome Forecast
Issued by NWS Cleveland, OH

Home | Current Version | Previous Version | Graphics & Text | Print | Product List | Glossary Off
Versions: 1 2 3 4 5 6 7 8 9 10 11 12 13 14 15 16 17 18 19

582
FTUS41 KCLE 242327
TAFCAK
TAF
KCAK 242327Z 2500/2524 12011KT 3SM -SHRA OVC030
     FM250200 12012KT P6SM OVC025
     FM250400 13012KT P6SM OVC035
     FM250800 13010KT P6SM -SHRA OVC015
     FM251500 16008KT 6SM -SHRA OVC007
     FM252300 26006KT 6SM -SHRA OVC007=

USA.gov is the U.S. government's official web portal to all federal, state and local government web resources and services.